createdAt,value
2022-12-18T00:02:53.217Z,38.13
2022-12-18T00:07:55.767Z,53.60
2022-12-18T00:12:58.226Z,32.95
2022-12-18T00:18:00.682Z,32.50
2022-12-18T00:23:03.352Z,39.80
2022-12-18T00:28:06.087Z,40.75
2022-12-18T00:33:09.396Z,41.05
2022-12-18T00:38:12.038Z,46.05
2022-12-18T00:43:14.702Z,53.13
2022-12-18T00:48:17.360Z,51.95
2022-12-18T00:53:19.910Z,57.55
2022-12-18T00:58:22.552Z,62.78
2022-12-18T01:03:25.279Z,55.38
2022-12-18T01:08:28.158Z,63.45
2022-12-18T01:13:30.969Z,63.67
2022-12-18T01:18:33.729Z,63.05
2022-12-18T01:23:36.849Z,55.50
2022-12-18T01:28:39.981Z,57.50
2022-12-18T01:33:44.548Z,52.50
2022-12-18T01:38:47.684Z,53.75
2022-12-18T01:43:55.183Z,48.90
2022-12-18T01:49:00.844Z,54.65
2022-12-18T01:54:03.661Z,48.17
2022-12-18T01:59:07.594Z,48.72
2022-12-18T02:04:23.927Z,40.25
2022-12-18T02:09:31.122Z,38.50
2022-12-18T02:14:36.914Z,39.35
2022-12-18T02:19:54.292Z,45.33
2022-12-18T02:25:12.000Z,40.60
2022-12-18T02:30:15.314Z,43.13
2022-12-18T02:35:21.697Z,39.67
2022-12-18T02:40:28.667Z,38.80
2022-12-18T02:45:32.275Z,33.95
2022-12-18T02:50:46.443Z,33.25
2022-12-18T02:55:58.162Z,35.92
2022-12-18T03:01:08.527Z,34.13
2022-12-18T03:06:31.632Z,30.85
2022-12-18T03:11:56.245Z,33.95
2022-12-18T03:17:00.722Z,39.17
2022-12-18T03:22:04.514Z,33.65
2022-12-18T03:27:18.758Z,35.55
2022-12-18T03:32:27.101Z,36.47
2022-12-18T03:37:32.667Z,32.25
2022-12-18T03:42:45.091Z,39.72
2022-12-18T03:47:53.991Z,36.40
2022-12-18T03:53:01.821Z,38.95
2022-12-18T03:58:07.292Z,38.00
2022-12-18T04:03:26.626Z,35.97
2022-12-18T04:08:30.349Z,37.08
2022-12-18T04:13:39.791Z,33.33
2022-12-18T04:18:47.779Z,94.03
2022-12-18T04:23:51.553Z,34.97
2022-12-18T04:28:57.224Z,37.88
2022-12-18T04:34:00.250Z,36.15
2022-12-18T04:39:04.282Z,34.88
2022-12-18T04:44:08.250Z,33.20
2022-12-18T04:49:12.069Z,39.25
2022-12-18T04:54:14.802Z,33.88
2022-12-18T04:59:17.529Z,30.60
2022-12-18T05:04:20.429Z,48.13
2022-12-18T05:09:24.492Z,35.60
2022-12-18T05:14:28.634Z,31.00
2022-12-18T05:19:31.403Z,40.17
2022-12-18T05:24:34.012Z,36.40
2022-12-18T05:29:36.800Z,38.22
2022-12-18T05:34:39.509Z,39.15
2022-12-18T05:39:42.293Z,41.30
2022-12-18T05:44:45.271Z,45.47
2022-12-18T05:49:47.742Z,35.63
2022-12-18T05:54:50.565Z,37.45
2022-12-18T05:59:53.116Z,35.55
2022-12-18T06:04:56.091Z,29.13
2022-12-18T06:09:58.922Z,34.60
2022-12-18T06:15:01.714Z,35.97
2022-12-18T06:20:04.611Z,31.60
2022-12-18T06:25:07.595Z,31.63
2022-12-18T06:30:11.137Z,40.67
2022-12-18T06:35:13.930Z,41.78
2022-12-18T06:40:16.769Z,39.13
2022-12-18T06:45:19.523Z,33.88
2022-12-18T06:50:22.410Z,40.85
2022-12-18T06:55:25.328Z,43.15
2022-12-18T07:00:28.220Z,34.65
2022-12-18T07:05:31.074Z,38.47
2022-12-18T07:10:33.893Z,34.75
2022-12-18T07:15:36.699Z,35.83
2022-12-18T07:20:39.439Z,33.75
2022-12-18T07:25:42.337Z,31.05
2022-12-18T07:30:45.143Z,34.13
2022-12-18T07:35:48.025Z,28.90
2022-12-18T07:40:50.830Z,31.17
2022-12-18T07:45:53.691Z,31.90
2022-12-18T07:51:05.287Z,31.33
2022-12-18T08:01:32.633Z,31.85
2022-12-18T08:06:35.244Z,31.98
2022-12-18T08:11:37.923Z,37.35
2022-12-18T08:16:41.235Z,30.08
2022-12-18T08:21:44.252Z,33.65
2022-12-18T08:27:06.690Z,33.33
2022-12-18T08:32:10.809Z,30.83
2022-12-18T08:37:13.785Z,31.75
2022-12-18T08:42:35.337Z,46.15
2022-12-18T08:47:37.956Z,37.42
2022-12-18T08:52:40.662Z,37.15
2022-12-18T08:57:43.495Z,38.33
2022-12-18T09:02:46.872Z,34.47
2022-12-18T09:07:49.607Z,35.67
2022-12-18T09:12:52.425Z,36.40
2022-12-18T09:17:55.051Z,36.30
2022-12-18T09:22:57.736Z,36.45
2022-12-18T09:28:01.414Z,38.97
2022-12-18T09:33:04.569Z,38.50
2022-12-18T09:38:10.032Z,40.45
2022-12-18T09:43:18.989Z,43.65
2022-12-18T09:48:36.862Z,40.00
2022-12-18T09:53:40.560Z,44.67
2022-12-18T09:58:46.424Z,42.67
2022-12-18T10:03:53.286Z,48.33
2022-12-18T10:09:16.089Z,45.42
2022-12-18T10:14:24.632Z,42.92
2022-12-18T10:19:50.560Z,41.67
2022-12-18T10:24:56.813Z,43.30
2022-12-18T10:30:02.483Z,42.20
2022-12-18T10:35:05.342Z,32.85
2022-12-18T10:40:08.364Z,36.10
2022-12-18T10:45:13.138Z,37.47
2022-12-18T10:51:08.617Z,37.65
2022-12-18T10:55:57.644Z,33.28
2022-12-18T11:01:21.229Z,32.40
2022-12-18T11:06:25.660Z,30.35
2022-12-18T11:11:28.739Z,30.08
2022-12-18T11:16:34.814Z,30.35
2022-12-18T11:21:41.026Z,29.52
2022-12-18T11:26:44.555Z,28.92
2022-12-18T11:31:47.671Z,33.22
2022-12-18T11:36:52.285Z,28.55
2022-12-18T11:42:12.853Z,29.40
2022-12-18T11:47:34.634Z,28.38
2022-12-18T11:52:41.711Z,26.40
2022-12-18T11:57:44.416Z,28.25
2022-12-18T12:03:05.938Z,24.70
2022-12-18T12:08:44.350Z,26.25
2022-12-18T12:13:53.030Z,21.45
2022-12-18T12:19:01.816Z,22.48
2022-12-18T12:24:10.761Z,24.02
2022-12-18T12:29:19.394Z,23.95
2022-12-18T12:34:27.969Z,24.95
2022-12-18T12:39:41.872Z,22.58
2022-12-18T12:44:52.717Z,23.00
2022-12-18T12:49:59.658Z,24.25
2022-12-18T12:55:08.040Z,25.92
2022-12-18T13:00:16.601Z,25.40
2022-12-18T13:05:23.332Z,25.45
2022-12-18T13:10:28.770Z,44.05
2022-12-18T13:15:36.718Z,41.03
2022-12-18T13:20:53.181Z,40.50
2022-12-18T13:26:01.157Z,29.13
2022-12-18T13:31:04.244Z,26.55
2022-12-18T13:36:25.540Z,29.15
2022-12-18T13:41:29.577Z,29.60
2022-12-18T13:46:48.123Z,31.60
2022-12-18T13:51:52.101Z,28.63
2022-12-18T13:56:55.224Z,28.40
2022-12-18T14:01:59.445Z,26.73
2022-12-18T14:07:15.757Z,25.33
2022-12-18T14:12:41.976Z,26.90
2022-12-18T14:17:44.793Z,31.88
2022-12-18T14:22:48.572Z,28.08
2022-12-18T14:27:53.957Z,28.23
2022-12-18T14:33:26.090Z,30.92
2022-12-18T14:38:39.251Z,28.23
2022-12-18T14:43:44.367Z,34.13
2022-12-18T14:48:48.822Z,30.60
2022-12-18T14:53:56.620Z,23.90
2022-12-18T14:59:10.390Z,23.65
2022-12-18T15:04:29.689Z,25.63
2022-12-18T15:09:32.279Z,24.05
2022-12-18T15:14:36.578Z,18.95
2022-12-18T15:19:42.760Z,21.27
2022-12-18T15:24:45.396Z,22.17
2022-12-18T15:30:01.131Z,24.30
2022-12-18T15:35:12.424Z,23.75
2022-12-18T15:40:19.981Z,25.63
2022-12-18T15:45:22.768Z,21.48
2022-12-18T15:50:27.022Z,23.88
2022-12-18T15:55:49.863Z,29.17
2022-12-18T16:00:52.933Z,26.25
2022-12-18T16:05:55.750Z,23.92
2022-12-18T16:10:59.538Z,25.05
2022-12-18T16:16:02.256Z,23.33
2022-12-18T16:21:04.915Z,29.02
2022-12-18T16:26:07.983Z,25.95
2022-12-18T16:31:10.708Z,28.20
2022-12-18T16:36:13.255Z,27.80
2022-12-18T16:41:34.870Z,30.73
2022-12-18T16:46:38.197Z,26.27
2022-12-18T16:51:40.767Z,27.33
2022-12-18T16:56:43.621Z,26.90
2022-12-18T17:01:46.159Z,27.25
2022-12-18T17:06:53.588Z,26.63
2022-12-18T17:11:56.281Z,27.45
2022-12-18T17:17:20.384Z,30.40
2022-12-18T17:22:25.834Z,32.38
2022-12-18T17:27:28.643Z,31.60
2022-12-18T17:32:31.376Z,28.50
2022-12-18T17:37:33.992Z,27.15
2022-12-18T17:42:36.804Z,29.90
2022-12-18T17:47:39.473Z,32.88
2022-12-18T17:52:42.287Z,34.47
2022-12-18T17:57:44.836Z,35.03
2022-12-18T18:02:47.812Z,33.38
2022-12-18T18:07:50.760Z,35.40
2022-12-18T18:13:13.993Z,35.30
2022-12-18T18:18:16.686Z,35.67
2022-12-18T18:23:20.110Z,40.17
2022-12-18T18:28:24.416Z,37.30
2022-12-18T18:33:27.317Z,39.85
2022-12-18T18:38:30.777Z,37.67
2022-12-18T18:43:33.975Z,43.10
2022-12-18T18:48:37.499Z,42.65
2022-12-18T18:53:42.787Z,40.97
2022-12-18T18:58:45.916Z,36.20
2022-12-18T19:03:49.269Z,42.10
2022-12-18T19:08:53.161Z,37.13
2022-12-18T19:13:56.675Z,41.33
2022-12-18T19:19:02.254Z,40.72
2022-12-18T19:24:09.295Z,41.63
2022-12-18T19:29:15.035Z,37.10
2022-12-18T19:34:17.832Z,41.67
2022-12-18T19:39:20.863Z,39.78
2022-12-18T19:44:23.614Z,37.75
2022-12-18T19:49:26.640Z,42.60
2022-12-18T19:54:31.253Z,42.13
2022-12-18T19:59:33.811Z,40.85
2022-12-18T20:04:36.747Z,38.70
2022-12-18T20:09:39.578Z,40.35
2022-12-18T20:14:42.464Z,37.75
2022-12-18T20:19:45.700Z,37.50
2022-12-18T20:24:49.582Z,40.67
2022-12-18T20:29:53.341Z,38.60
2022-12-18T20:34:56.956Z,37.53
2022-12-18T20:40:00.867Z,39.55
2022-12-18T20:45:06.625Z,42.17
2022-12-18T20:50:09.640Z,40.13
2022-12-18T20:55:12.675Z,42.50
2022-12-18T21:00:15.605Z,37.33
2022-12-18T21:05:23.308Z,39.42
2022-12-18T21:10:25.824Z,41.58
2022-12-18T21:15:29.505Z,35.60
2022-12-18T21:20:32.197Z,43.13
2022-12-18T21:25:35.582Z,40.28
2022-12-18T21:30:38.593Z,40.03
2022-12-18T21:35:42.476Z,40.92
2022-12-18T21:40:45.784Z,39.65
2022-12-18T21:45:49.850Z,38.25
2022-12-18T21:50:52.339Z,35.40
2022-12-18T21:56:01.526Z,37.95
2022-12-18T22:01:04.196Z,34.58
2022-12-18T22:06:09.444Z,38.75
2022-12-18T22:11:12.653Z,38.72
2022-12-18T22:16:15.194Z,39.05
2022-12-18T22:21:50.556Z,38.90
2022-12-18T22:26:57.307Z,38.05
2022-12-18T22:32:05.753Z,40.83
2022-12-18T22:37:09.970Z,36.83
2022-12-18T22:42:12.909Z,42.65
2022-12-18T22:47:15.855Z,38.80
2022-12-18T22:52:18.688Z,39.10
2022-12-18T22:57:24.885Z,34.53
2022-12-18T23:02:27.929Z,37.38
2022-12-18T23:07:30.663Z,39.55
2022-12-18T23:12:33.457Z,40.15
2022-12-18T23:17:38.898Z,37.55
2022-12-18T23:22:41.935Z,37.72
2022-12-18T23:27:44.945Z,36.85
2022-12-18T23:32:47.669Z,39.65
2022-12-18T23:38:00.913Z,37.17
2022-12-18T23:43:03.746Z,39.30
2022-12-18T23:48:06.427Z,36.70
2022-12-18T23:53:09.469Z,38.95
2022-12-18T23:58:19.871Z,37.42
